Time;durP1;ratioP1;P1;durP2;ratioP2;P2;SDS_P1;SDS_P2;PMS_P1;PMS_P2;Temp;Humidity;BMP_temperature;BMP_pressure;BME280_temperature;BME280_humidity;BME280_pressure;Samples;Min_cycle;Max_cycle;Signal;HPM_P1;HPM_P2
2021/12/28 00:01:32;;;;;;;22.77;10.18;;;10.90;71.40;;;;;;6228688;28;20037;-72
2021/12/28 00:04:34;;;;;;;25.73;11.88;;;10.90;71.50;;;;;;6238167;28;20127;-72
2021/12/28 00:07:35;;;;;;;27.98;11.65;;;10.90;71.50;;;;;;6236906;28;20068;-73
2021/12/28 00:10:36;;;;;;;22.75;10.50;;;10.90;71.70;;;;;;6234961;28;20041;-71
2021/12/28 00:13:39;;;;;;;20.70;9.60;;;10.90;71.60;;;;;;6232034;28;20057;-70
2021/12/28 00:20:00;;;;;;;21.23;10.32;;;11.00;71.50;;;;;;6234064;28;20479;-71
2021/12/28 00:23:04;;;;;;;17.75;9.52;;;11.00;71.30;;;;;;6234901;28;20131;-72
2021/12/28 00:26:08;;;;;;;24.77;10.82;;;11.00;71.40;;;;;;6230580;28;20371;-71
2021/12/28 00:29:09;;;;;;;22.20;10.93;;;11.00;71.50;;;;;;6238929;28;20029;-71
2021/12/28 00:32:10;;;;;;;19.02;10.07;;;11.00;71.30;;;;;;6235349;28;20080;-71
2021/12/28 00:35:11;;;;;;;25.30;12.80;;;11.00;71.20;;;;;;6204891;28;20351;-71
2021/12/28 00:38:18;;;;;;;21.38;10.75;;;11.00;71.20;;;;;;6183393;28;1368411;-71
2021/12/28 00:41:20;;;;;;;31.13;11.32;;;11.10;71.30;;;;;;6235157;28;20064;-71
2021/12/28 00:44:21;;;;;;;28.25;11.18;;;11.10;71.30;;;;;;6226351;28;20117;-72
2021/12/28 00:47:22;;;;;;;23.20;10.23;;;11.10;71.30;;;;;;6236176;28;20026;-72
2021/12/28 00:50:24;;;;;;;20.70;10.57;;;11.10;71.20;;;;;;6237560;28;20124;-72
2021/12/28 00:53:26;;;;;;;27.27;10.82;;;11.10;71.10;;;;;;6237718;28;20069;-72
2021/12/28 00:56:27;;;;;;;22.80;10.40;;;11.10;71.20;;;;;;6214645;28;20033;-72
2021/12/28 00:59:29;;;;;;;25.85;12.43;;;11.10;71.50;;;;;;6250955;28;20064;-72
2021/12/28 01:02:30;;;;;;;22.95;11.98;;;11.10;71.20;;;;;;6229838;28;20038;-72
2021/12/28 01:05:32;;;;;;;24.25;11.63;;;11.10;71.20;;;;;;6230249;28;20037;-72
2021/12/28 01:08:34;;;;;;;22.73;11.55;;;11.10;71.20;;;;;;6229322;28;20352;-72
2021/12/28 01:11:35;;;;;;;22.10;11.35;;;11.10;71.10;;;;;;6227453;28;20030;-72
2021/12/28 01:14:37;;;;;;;20.05;10.85;;;11.00;71.00;;;;;;6230488;28;20064;-72
2021/12/28 01:17:38;;;;;;;23.90;11.65;;;11.00;71.20;;;;;;6233857;28;20442;-72
2021/12/28 01:20:41;;;;;;;22.08;11.32;;;11.00;71.20;;;;;;6235214;28;20491;-72
2021/12/28 01:23:42;;;;;;;21.92;11.35;;;11.00;71.10;;;;;;6226370;28;20362;-71
2021/12/28 01:26:43;;;;;;;24.00;11.98;;;11.00;71.10;;;;;;6230660;28;20514;-71
2021/12/28 01:29:44;;;;;;;25.65;11.55;;;11.00;71.20;;;;;;6221437;28;20038;-72
2021/12/28 01:32:45;;;;;;;27.50;11.85;;;11.00;71.30;;;;;;6239548;28;20099;-72
2021/12/28 01:35:46;;;;;;;24.90;11.45;;;11.00;71.30;;;;;;6241576;28;20041;-72
2021/12/28 01:38:47;;;;;;;26.10;12.32;;;11.00;71.40;;;;;;6211622;28;20042;-72
2021/12/28 01:41:48;;;;;;;24.98;11.07;;;11.00;71.50;;;;;;6230008;28;20037;-72
2021/12/28 01:44:49;;;;;;;28.45;13.13;;;11.00;71.50;;;;;;6240137;28;20124;-72
2021/12/28 01:47:50;;;;;;;22.63;10.80;;;11.00;71.50;;;;;;6235836;28;20045;-72
2021/12/28 01:50:54;;;;;;;21.00;11.52;;;11.00;71.50;;;;;;6228486;28;20080;-72
2021/12/28 01:53:57;;;;;;;25.73;11.18;;;11.00;71.70;;;;;;6232310;28;20428;-72
2021/12/28 01:56:58;;;;;;;25.05;10.80;;;10.90;71.70;;;;;;6223011;28;20394;-72
2021/12/28 01:59:59;;;;;;;18.13;9.27;;;10.90;71.80;;;;;;6234143;28;20034;-72
2021/12/28 02:03:06;;;;;;;20.38;9.88;;;10.90;72.00;;;;;;6231865;28;20037;-72
2021/12/28 02:06:07;;;;;;;20.33;10.48;;;10.90;72.10;;;;;;6241670;28;20029;-72
2021/12/28 02:09:09;;;;;;;22.70;11.32;;;11.00;72.10;;;;;;6229154;28;20111;-72
2021/12/28 02:12:10;;;;;;;25.27;11.18;;;11.00;72.20;;;;;;6231681;28;20041;-72
2021/12/28 02:15:14;;;;;;;25.50;10.65;;;10.90;72.20;;;;;;6233293;28;20072;-72
2021/12/28 02:18:17;;;;;;;25.95;11.77;;;10.90;72.30;;;;;;6248749;28;20042;-72
2021/12/28 02:21:18;;;;;;;24.88;11.10;;;10.90;72.40;;;;;;6226749;28;20458;-72
2021/12/28 02:24:20;;;;;;;20.60;11.15;;;10.90;72.40;;;;;;6224441;28;20041;-72
2021/12/28 02:27:21;;;;;;;25.92;10.90;;;11.00;72.60;;;;;;6242951;28;20034;-72
2021/12/28 02:30:22;;;;;;;22.90;10.93;;;11.00;72.60;;;;;;6232686;28;20422;-71
2021/12/28 02:33:24;;;;;;;20.67;10.68;;;11.00;72.60;;;;;;6239947;28;20038;-71
2021/12/28 02:36:26;;;;;;;25.70;11.45;;;11.00;72.60;;;;;;6233784;28;20080;-71
2021/12/28 02:39:27;;;;;;;23.35;10.48;;;11.00;72.60;;;;;;6228961;28;20375;-72
2021/12/28 02:42:28;;;;;;;22.25;10.63;;;11.00;73.50;;;;;;6229493;28;20462;-72
2021/12/28 02:45:33;;;;;;;19.38;10.32;;;11.00;72.80;;;;;;6232703;28;20022;-71
2021/12/28 02:48:35;;;;;;;19.65;9.30;;;11.00;72.90;;;;;;6234561;28;20026;-71
2021/12/28 02:51:36;;;;;;;27.67;10.35;;;11.10;73.00;;;;;;6225589;28;20439;-71
2021/12/28 02:54:39;;;;;;;21.48;10.82;;;11.10;72.90;;;;;;6234002;28;20540;-72
2021/12/28 02:57:56;;;;;;;22.33;11.05;;;11.10;72.90;;;;;;6232859;28;20037;-72
2021/12/28 03:01:08;;;;;;;18.80;10.02;;;11.10;73.00;;;;;;6236683;28;20042;-72
2021/12/28 03:04:10;;;;;;;16.02;8.13;;;11.10;73.80;;;;;;6230729;28;20474;-72
2021/12/28 03:07:11;;;;;;;20.55;8.23;;;11.20;73.00;;;;;;6242613;28;20459;-73
2021/12/28 03:10:12;;;;;;;14.85;8.80;;;11.20;73.20;;;;;;6232781;28;20029;-72
2021/12/28 03:13:19;;;;;;;20.58;10.50;;;11.20;73.20;;;;;;6228797;28;20086;-72
2021/12/28 03:16:22;;;;;;;18.50;9.93;;;11.20;73.20;;;;;;6237273;28;20416;-72
2021/12/28 03:19:24;;;;;;;25.88;10.15;;;11.20;73.20;;;;;;6250238;28;20483;-72
2021/12/28 03:22:25;;;;;;;19.15;9.18;;;11.20;73.40;;;;;;6233469;28;20033;-72
2021/12/28 03:25:26;;;;;;;16.35;8.85;;;11.20;73.40;;;;;;6243187;28;20044;-72
2021/12/28 03:28:30;;;;;;;20.65;8.52;;;11.20;73.40;;;;;;6237327;28;20059;-72
2021/12/28 03:31:32;;;;;;;16.45;7.80;;;11.30;73.40;;;;;;6238920;28;20030;-72
2021/12/28 03:34:33;;;;;;;21.27;9.07;;;11.30;73.30;;;;;;6232366;28;20038;-72
2021/12/28 03:37:35;;;;;;;22.52;8.80;;;11.30;73.10;;;;;;6222034;28;20042;-72
2021/12/28 03:40:36;;;;;;;12.20;7.50;;;11.30;73.20;;;;;;6226454;28;20072;-72
2021/12/28 03:43:42;;;;;;;17.35;8.43;;;11.30;73.30;;;;;;6242785;28;20037;-72
2021/12/28 03:46:43;;;;;;;13.38;5.63;;;11.30;73.40;;;;;;6234366;28;20426;-72
2021/12/28 03:49:44;;;;;;;15.65;7.82;;;11.30;73.50;;;;;;6234620;28;20125;-72
2021/12/28 03:52:46;;;;;;;15.00;7.50;;;11.40;73.50;;;;;;6231825;28;20045;-72
2021/12/28 03:55:47;;;;;;;12.48;5.75;;;11.40;73.50;;;;;;6232914;28;20033;-72
2021/12/28 03:58:49;;;;;;;13.65;5.97;;;11.50;73.50;;;;;;6236817;28;20060;-72
2021/12/28 04:01:50;;;;;;;15.85;6.97;;;11.50;73.40;;;;;;6237882;28;20360;-72
2021/12/28 04:04:51;;;;;;;15.07;5.30;;;11.50;73.40;;;;;;6208931;28;20037;-72
2021/12/28 04:07:53;;;;;;;11.95;5.40;;;11.60;73.50;;;;;;6227014;28;20057;-71
2021/12/28 04:11:02;;;;;;;8.18;5.15;;;11.60;73.60;;;;;;6230475;28;20441;-71
2021/12/28 04:14:06;;;;;;;10.07;5.00;;;11.70;73.50;;;;;;6231300;28;20387;-72
2021/12/28 04:17:08;;;;;;;13.43;2.67;;;11.70;73.50;;;;;;6233655;28;20440;-72
2021/12/28 04:20:13;;;;;;;10.52;5.05;;;11.70;73.40;;;;;;6236272;28;20030;-72
2021/12/28 04:23:14;;;;;;;14.95;3.85;;;11.80;73.40;;;;;;6234185;28;20033;-72
2021/12/28 04:26:15;;;;;;;11.70;4.13;;;11.80;73.40;;;;;;6217398;28;20037;-72
2021/12/28 04:29:16;;;;;;;13.75;4.60;;;11.90;73.40;;;;;;6236208;28;20060;-72
2021/12/28 04:32:18;;;;;;;10.10;4.80;;;11.90;73.30;;;;;;6234637;28;20343;-72
2021/12/28 04:35:19;;;;;;;7.40;2.78;;;12.00;73.10;;;;;;6232535;28;20053;-72
2021/12/28 04:38:20;;;;;;;3.42;1.15;;;12.00;73.10;;;;;;6222792;28;20498;-72
2021/12/28 04:41:21;;;;;;;4.00;1.30;;;12.00;73.00;;;;;;6224556;28;20045;-72
2021/12/28 04:44:25;;;;;;;3.83;1.75;;;12.10;72.80;;;;;;6228595;28;20044;-72
2021/12/28 04:47:26;;;;;;;2.22;0.70;;;12.10;72.80;;;;;;6237398;28;20479;-71
2021/12/28 04:50:27;;;;;;;2.33;1.05;;;12.10;72.70;;;;;;6232848;28;20021;-72
2021/12/28 04:53:28;;;;;;;5.30;1.00;;;12.20;72.70;;;;;;6233735;28;20030;-71
2021/12/28 04:56:29;;;;;;;4.72;1.45;;;12.30;72.60;;;;;;6227933;28;20049;-72
2021/12/28 04:59:30;;;;;;;5.78;1.65;;;12.30;72.20;;;;;;6233894;28;20375;-71
2021/12/28 05:02:31;;;;;;;2.83;1.45;;;12.30;72.10;;;;;;6241514;28;20040;-71
2021/12/28 05:05:32;;;;;;;6.25;1.55;;;12.30;71.90;;;;;;6206980;28;20061;-72
2021/12/28 05:08:34;;;;;;;3.70;1.55;;;12.30;71.90;;;;;;6224835;28;20040;-72
2021/12/28 05:11:36;;;;;;;3.40;1.50;;;12.30;71.90;;;;;;6233147;28;20044;-71
2021/12/28 05:14:41;;;;;;;3.50;1.42;;;12.30;71.80;;;;;;6233454;28;20394;-72
2021/12/28 05:17:41;;;;;;;3.78;1.70;;;12.30;71.70;;;;;;6248451;28;20033;-72
2021/12/28 05:20:43;;;;;;;3.17;1.35;;;12.30;71.60;;;;;;6232941;28;20479;-71
2021/12/28 05:23:44;;;;;;;3.78;1.55;;;12.40;71.60;;;;;;6235810;28;20176;-71
2021/12/28 05:26:46;;;;;;;7.00;2.65;;;12.40;71.50;;;;;;6216642;28;20034;-71
2021/12/28 05:29:48;;;;;;;7.65;2.78;;;12.40;71.30;;;;;;6239202;28;20103;-73
2021/12/28 05:32:49;;;;;;;8.05;2.13;;;12.40;71.40;;;;;;6246616;28;20049;-72
2021/12/28 05:35:50;;;;;;;5.65;2.42;;;12.40;71.40;;;;;;6242343;28;20034;-72
2021/12/28 05:38:52;;;;;;;6.68;2.22;;;12.40;71.40;;;;;;6211587;28;20052;-72
2021/12/28 05:41:53;;;;;;;6.32;2.88;;;12.40;71.20;;;;;;6245715;28;20072;-73
2021/12/28 05:44:54;;;;;;;3.97;2.08;;;12.40;71.10;;;;;;6236542;28;20041;-71
2021/12/28 05:47:56;;;;;;;11.90;2.47;;;12.40;71.30;;;;;;6248157;28;20084;-72
2021/12/28 05:50:57;;;;;;;3.38;1.75;;;12.40;71.30;;;;;;6233032;28;20048;-72
2021/12/28 05:53:58;;;;;;;9.18;2.72;;;12.40;71.30;;;;;;6238709;28;20057;-71
2021/12/28 05:56:59;;;;;;;3.85;2.67;;;12.40;71.30;;;;;;6245113;28;20037;-72
2021/12/28 06:00:01;;;;;;;7.28;3.05;;;12.40;71.10;;;;;;6244282;28;20030;-72
2021/12/28 06:03:02;;;;;;;6.95;2.80;;;12.50;71.10;;;;;;6240706;28;20520;-72
2021/12/28 06:06:03;;;;;;;6.07;3.25;;;12.50;70.90;;;;;;6230678;28;20080;-72
2021/12/28 06:09:05;;;;;;;5.95;2.92;;;12.50;71.10;;;;;;6246976;28;20034;-74
2021/12/28 06:12:06;;;;;;;5.07;2.10;;;12.50;71.20;;;;;;6229812;28;20037;-71
2021/12/28 06:15:08;;;;;;;5.57;2.78;;;12.60;71.10;;;;;;6241761;28;20064;-71
2021/12/28 06:18:09;;;;;;;4.80;2.80;;;12.60;71.00;;;;;;6230994;28;20030;-71
2021/12/28 06:21:10;;;;;;;6.68;3.20;;;12.60;71.00;;;;;;6242435;28;20033;-72
2021/12/28 06:24:11;;;;;;;8.52;3.00;;;12.60;71.10;;;;;;6235065;28;20124;-71
2021/12/28 06:27:12;;;;;;;5.10;2.88;;;12.60;71.10;;;;;;6234995;28;20123;-72
2021/12/28 06:30:13;;;;;;;12.27;2.58;;;12.60;70.80;;;;;;6246472;28;20061;-71
2021/12/28 06:33:15;;;;;;;6.35;2.83;;;12.70;70.90;;;;;;6236093;28;20567;-71
2021/12/28 06:36:16;;;;;;;7.78;2.90;;;12.70;70.80;;;;;;6235125;28;20038;-71
2021/12/28 06:39:17;;;;;;;6.82;3.15;;;12.70;70.60;;;;;;6244369;28;20041;-72
2021/12/28 06:42:19;;;;;;;9.85;2.88;;;12.70;70.60;;;;;;6220894;28;20128;-72
2021/12/28 06:45:21;;;;;;;8.73;3.00;;;12.70;70.60;;;;;;6241927;28;20034;-72
2021/12/28 06:48:26;;;;;;;8.23;2.90;;;12.70;70.60;;;;;;6209108;28;20134;-72
2021/12/28 06:51:27;;;;;;;7.68;3.50;;;12.70;70.60;;;;;;6227894;28;20042;-72
2021/12/28 06:54:28;;;;;;;9.80;3.90;;;12.70;70.40;;;;;;6246436;28;20335;-72
2021/12/28 06:57:29;;;;;;;6.65;3.10;;;12.70;70.40;;;;;;6235659;28;20041;-72
2021/12/28 07:00:32;;;;;;;10.02;3.33;;;12.70;70.40;;;;;;6241307;28;20038;-72
2021/12/28 07:03:33;;;;;;;10.55;2.85;;;12.70;70.20;;;;;;6241245;28;20455;-72
2021/12/28 07:06:34;;;;;;;7.93;2.92;;;12.70;70.40;;;;;;6227754;28;20029;-72
2021/12/28 07:09:35;;;;;;;9.82;3.13;;;12.70;70.30;;;;;;6230573;28;20069;-71
2021/12/28 07:12:37;;;;;;;9.52;2.95;;;12.70;70.30;;;;;;6241704;28;20095;-72
2021/12/28 07:15:38;;;;;;;6.63;3.10;;;12.80;70.40;;;;;;6237926;28;20435;-72
2021/12/28 07:18:39;;;;;;;6.30;2.90;;;12.80;70.30;;;;;;6246164;28;20064;-71
2021/12/28 07:21:41;;;;;;;7.68;3.28;;;12.80;70.20;;;;;;6234701;28;20038;-72
2021/12/28 07:24:42;;;;;;;7.57;3.25;;;12.80;70.20;;;;;;6226315;28;20061;-71
2021/12/28 07:27:44;;;;;;;9.02;2.40;;;12.80;70.20;;;;;;6224858;28;20041;-72
2021/12/28 07:30:45;;;;;;;7.15;2.78;;;12.80;70.00;;;;;;6240781;28;20026;-72
2021/12/28 07:33:46;;;;;;;5.68;2.50;;;12.80;70.00;;;;;;6235740;28;20385;-72
2021/12/28 07:36:47;;;;;;;6.93;3.00;;;12.90;70.20;;;;;;6228676;28;20091;-71
2021/12/28 07:39:50;;;;;;;3.97;2.05;;;12.90;70.00;;;;;;6235263;28;20402;-72
2021/12/28 07:42:51;;;;;;;6.97;2.50;;;12.90;69.80;;;;;;6225642;28;20040;-71
2021/12/28 07:45:52;;;;;;;9.98;2.03;;;12.90;69.80;;;;;;6241709;28;20052;-72
2021/12/28 07:48:53;;;;;;;5.35;2.67;;;12.90;69.80;;;;;;6226940;28;20456;-71
2021/12/28 07:51:54;;;;;;;5.53;2.10;;;13.00;69.80;;;;;;6228422;28;20041;-71
2021/12/28 07:54:56;;;;;;;3.67;1.83;;;13.00;69.60;;;;;;6242446;28;20103;-72
2021/12/28 07:57:56;;;;;;;6.68;2.75;;;13.00;69.40;;;;;;6234732;28;20395;-73
2021/12/28 08:00:57;;;;;;;8.90;2.22;;;13.00;69.30;;;;;;6230076;28;20095;-71
2021/12/28 08:03:59;;;;;;;3.88;1.73;;;13.00;69.40;;;;;;6244381;28;20045;-71
2021/12/28 08:07:00;;;;;;;5.38;1.98;;;13.00;69.20;;;;;;6236154;28;20082;-72
2021/12/28 08:10:01;;;;;;;5.63;2.33;;;13.10;69.20;;;;;;6242396;28;20030;-72
2021/12/28 08:13:02;;;;;;;5.97;2.00;;;13.10;69.10;;;;;;6226000;28;20049;-72
2021/12/28 08:16:03;;;;;;;8.82;3.00;;;13.20;69.20;;;;;;6235959;28;20418;-72
2021/12/28 08:19:06;;;;;;;5.47;2.13;;;13.20;69.00;;;;;;6245075;28;20485;-71
2021/12/28 08:22:07;;;;;;;4.05;1.95;;;13.20;68.90;;;;;;6231941;28;20517;-71
2021/12/28 08:25:11;;;;;;;4.90;1.73;;;13.30;68.80;;;;;;6226017;28;20060;-71
2021/12/28 08:28:12;;;;;;;3.80;1.63;;;13.30;68.60;;;;;;6244745;28;20033;-72
2021/12/28 08:31:13;;;;;;;4.13;1.70;;;13.30;68.40;;;;;;6247842;28;20084;-72
2021/12/28 08:34:14;;;;;;;4.82;1.40;;;13.40;68.50;;;;;;6243832;28;20114;-72
2021/12/28 08:37:15;;;;;;;4.30;2.10;;;13.40;68.50;;;;;;6225730;28;20054;-72
2021/12/28 08:40:17;;;;;;;4.15;1.98;;;13.50;68.30;;;;;;6239339;28;20038;-72
2021/12/28 08:43:18;;;;;;;9.10;2.70;;;13.50;68.00;;;;;;6242167;28;20037;-72
2021/12/28 08:46:19;;;;;;;16.23;2.60;;;13.60;67.90;;;;;;6239779;28;20103;-72
2021/12/28 08:49:20;;;;;;;2.08;1.45;;;13.60;67.70;;;;;;6243587;28;20030;-73
2021/12/28 08:52:22;;;;;;;4.78;1.33;;;13.60;67.60;;;;;;6244562;28;20046;-71
2021/12/28 08:55:24;;;;;;;4.95;1.92;;;13.70;67.50;;;;;;6239142;28;20049;-71
2021/12/28 08:58:25;;;;;;;1.85;1.20;;;13.80;67.20;;;;;;6244974;28;20035;-71
2021/12/28 09:01:26;;;;;;;3.53;1.27;;;13.90;66.90;;;;;;6249190;28;20076;-72
2021/12/28 09:04:27;;;;;;;3.42;1.20;;;13.90;66.50;;;;;;6244899;28;20061;-73
2021/12/28 09:07:28;;;;;;;2.15;1.10;;;13.90;66.50;;;;;;6241431;28;20459;-72
2021/12/28 09:10:29;;;;;;;5.00;1.10;;;14.00;66.40;;;;;;6242822;28;20030;-72
2021/12/28 09:13:30;;;;;;;12.20;1.63;;;14.10;66.20;;;;;;6248065;28;20378;-72
2021/12/28 09:16:31;;;;;;;1.30;0.82;;;14.10;67.00;;;;;;6235140;28;20471;-73
2021/12/28 09:19:33;;;;;;;3.97;1.50;;;14.20;65.90;;;;;;6236490;28;20087;-72
2021/12/28 09:22:34;;;;;;;5.25;2.05;;;14.30;65.70;;;;;;6247428;28;20332;-73
2021/12/28 09:25:35;;;;;;;5.18;2.67;;;14.30;65.40;;;;;;6249486;28;20029;-72
2021/12/28 09:28:36;;;;;;;7.43;3.97;;;14.30;65.40;;;;;;6250399;28;20475;-72
2021/12/28 09:31:37;;;;;;;6.03;3.58;;;14.30;65.40;;;;;;6244251;28;20458;-72
2021/12/28 09:34:39;;;;;;;16.65;5.75;;;14.30;65.30;;;;;;6241514;28;20140;-72
2021/12/28 09:37:41;;;;;;;16.75;4.53;;;14.30;65.30;;;;;;6243493;28;20498;-73
2021/12/28 09:40:42;;;;;;;15.52;5.00;;;14.30;65.20;;;;;;6236530;28;20446;-71
2021/12/28 09:43:43;;;;;;;8.48;4.28;;;14.20;65.40;;;;;;6240524;28;20044;-72
2021/12/28 09:46:45;;;;;;;10.90;3.92;;;14.20;65.30;;;;;;6224872;28;20044;-72
2021/12/28 09:49:48;;;;;;;9.13;3.53;;;14.20;65.40;;;;;;6239917;28;20045;-72
2021/12/28 09:52:50;;;;;;;12.40;5.55;;;14.10;65.40;;;;;;6229302;28;20132;-73
2021/12/28 09:55:51;;;;;;;14.02;5.50;;;14.00;65.40;;;;;;6238182;28;20093;-73
2021/12/28 09:58:52;;;;;;;10.73;4.22;;;13.90;65.40;;;;;;6246167;28;20470;-71
2021/12/28 10:01:53;;;;;;;27.80;11.05;;;13.90;65.70;;;;;;6242956;28;20041;-71
2021/12/28 10:05:05;;;;;;;15.57;4.40;;;13.90;66.00;;;;;;6234589;28;20034;-73
2021/12/28 10:08:06;;;;;;;13.50;4.30;;;13.80;66.00;;;;;;6230160;28;20041;-72
2021/12/28 10:11:07;;;;;;;11.50;4.43;;;13.80;67.10;;;;;;6235685;28;20042;-71
2021/12/28 10:14:18;;;;;;;7.57;4.00;;;13.80;66.40;;;;;;6206319;28;20159;-72
2021/12/28 10:17:26;;;;;;;9.35;3.47;;;13.80;66.50;;;;;;6230512;28;20060;-72
2021/12/28 10:20:37;;;;;;;14.15;4.38;;;13.80;66.40;;;;;;6235470;28;20347;-71
2021/12/28 10:23:42;;;;;;;8.57;3.80;;;13.70;66.50;;;;;;6229790;28;20141;-73
2021/12/28 10:27:03;;;;;;;7.85;3.45;;;13.80;66.80;;;;;;6226719;28;20064;-73
2021/12/28 10:30:09;;;;;;;20.42;6.95;;;13.80;66.80;;;;;;6233435;28;20099;-72
2021/12/28 10:33:17;;;;;;;11.98;4.93;;;13.80;66.70;;;;;;6239680;28;20061;-72
2021/12/28 10:36:17;;;;;;;10.82;4.70;;;13.80;66.70;;;;;;6233630;28;20104;-73
2021/12/28 10:39:19;;;;;;;9.15;4.20;;;13.70;66.70;;;;;;6221832;28;20045;-73
2021/12/28 10:42:48;;;;;;;10.70;4.55;;;13.70;66.80;;;;;;6239139;28;20065;-72
2021/12/28 10:45:54;;;;;;;7.30;3.55;;;13.70;67.00;;;;;;6230510;28;20183;-72
2021/12/28 10:49:00;;;;;;;8.98;3.40;;;13.60;67.00;;;;;;6238299;28;20458;-72
2021/12/28 10:52:29;;;;;;;8.93;4.75;;;13.60;67.20;;;;;;6242905;28;20049;-72
2021/12/28 10:55:30;;;;;;;10.68;4.78;;;13.50;67.30;;;;;;6230011;28;20030;-73
2021/12/28 10:58:40;;;;;;;8.32;4.25;;;13.50;67.40;;;;;;6236937;28;20082;-72
2021/12/28 11:01:42;;;;;;;28.63;9.95;;;13.50;67.60;;;;;;6212917;28;20022;-72
2021/12/28 11:04:43;;;;;;;17.45;8.35;;;13.60;67.70;;;;;;6239211;28;20088;-72
2021/12/28 11:07:57;;;;;;;13.32;5.72;;;13.60;67.80;;;;;;6236837;28;20033;-72
2021/12/28 11:11:04;;;;;;;9.38;4.32;;;13.60;67.70;;;;;;6213065;28;20038;-73
2021/12/28 11:14:09;;;;;;;9.45;4.35;;;13.60;67.70;;;;;;6236007;28;20034;-73
2021/12/28 11:17:11;;;;;;;12.10;5.43;;;13.70;67.80;;;;;;6235451;28;20045;-73
2021/12/28 11:20:12;;;;;;;15.50;7.40;;;13.70;67.80;;;;;;6252030;28;20400;-72
2021/12/28 11:23:16;;;;;;;15.82;6.15;;;13.80;67.70;;;;;;6241750;28;20216;-73
2021/12/28 11:26:26;;;;;;;17.50;7.20;;;13.80;67.60;;;;;;6229252;28;21475;-73
2021/12/28 11:29:38;;;;;;;13.38;6.20;;;13.80;67.50;;;;;;6230809;28;20108;-73
2021/12/28 11:32:39;;;;;;;14.10;6.18;;;13.80;67.60;;;;;;6232252;28;20045;-71
2021/12/28 11:35:40;;;;;;;12.43;6.25;;;13.80;67.60;;;;;;6227654;28;20036;-73
2021/12/28 11:38:42;;;;;;;25.50;9.18;;;13.80;67.50;;;;;;6223664;28;20037;-72
2021/12/28 11:41:45;;;;;;;17.65;7.50;;;13.80;67.60;;;;;;6218890;28;20121;-72
2021/12/28 11:44:47;;;;;;;40.95;14.82;;;13.80;67.70;;;;;;6232947;28;20511;-74
2021/12/28 11:47:48;;;;;;;18.25;8.02;;;13.80;67.60;;;;;;6215334;28;20038;-74
2021/12/28 11:50:50;;;;;;;12.52;7.03;;;13.80;67.60;;;;;;6238137;28;20056;-73
2021/12/28 11:53:53;;;;;;;12.70;6.22;;;13.80;67.60;;;;;;6238497;28;20044;-74
2021/12/28 11:57:29;;;;;;;10.43;6.07;;;13.90;67.60;;;;;;6208859;28;20046;-74
2021/12/28 12:00:54;;;;;;;;;;;;;;;;;;;;;
2021/12/28 12:04:10;;;;;;;19.73;8.40;;;13.80;67.40;;;;;;6127024;28;20411;-73
2021/12/28 12:07:26;;;;;;;17.27;6.70;;;13.80;67.60;;;;;;6107216;28;20111;-73
2021/12/28 12:10:35;;;;;;;11.43;5.65;;;13.80;67.60;;;;;;6157682;28;20096;-73
2021/12/28 12:13:49;;;;;;;11.10;6.30;;;13.80;67.50;;;;;;6177976;28;20042;-71
2021/12/28 12:17:28;;;;;;;18.50;7.78;;;13.80;67.50;;;;;;6142975;28;20039;-71
2021/12/28 12:20:38;;;;;;;19.58;8.70;;;13.80;67.50;;;;;;6166542;28;20456;-73
2021/12/28 12:23:46;;;;;;;18.50;8.30;;;13.70;67.50;;;;;;6121797;28;20030;-73
2021/12/28 12:26:48;;;;;;;20.13;9.05;;;13.70;67.70;;;;;;6130722;28;20031;-72
2021/12/28 12:29:49;;;;;;;20.90;8.25;;;13.60;67.80;;;;;;6136923;28;20046;-72
2021/12/28 12:33:05;;;;;;;28.85;12.88;;;13.60;68.00;;;;;;6175326;28;20042;-72
2021/12/28 12:36:18;;;;;;;;;;;13.60;68.30;;;;;;6169001;28;20026;-72
2021/12/28 12:39:23;;;;;;;20.80;11.75;;;13.50;68.20;;;;;;6209796;28;19917;-72
2021/12/28 12:42:25;;;;;;;23.33;9.32;;;13.50;68.10;;;;;;6185559;28;20476;-72
2021/12/28 12:45:52;;;;;;;17.67;6.25;;;13.50;68.20;;;;;;6225520;28;20356;-72
2021/12/28 12:48:53;;;;;;;13.18;6.47;;;13.40;68.40;;;;;;6177336;28;20045;-72
2021/12/28 12:52:13;;;;;;;10.13;5.88;;;13.50;68.60;;;;;;6151651;28;20043;-72
2021/12/28 12:55:34;;;;;;;16.05;6.85;;;13.50;68.70;;;;;;6183206;28;20051;-71
2021/12/28 12:58:40;;;;;;;12.48;5.75;;;13.40;68.70;;;;;;6171102;28;20046;-73
2021/12/28 13:01:41;;;;;;;10.20;5.22;;;13.50;68.80;;;;;;6185337;28;20042;-73
2021/12/28 13:04:45;;;;;;;16.10;6.78;;;13.40;68.70;;;;;;6188100;28;20109;-73
2021/12/28 13:07:47;;;;;;;21.30;9.88;;;13.50;68.60;;;;;;6168397;28;20367;-73
2021/12/28 13:10:48;;;;;;;29.33;13.27;;;13.50;68.50;;;;;;6181034;28;20030;-72
2021/12/28 13:13:50;;;;;;;32.90;12.82;;;13.50;68.30;;;;;;6185836;28;20098;-73
2021/12/28 13:16:58;;;;;;;19.98;9.07;;;13.50;68.40;;;;;;6179285;28;20432;-72
2021/12/28 13:20:00;;;;;;;28.52;13.65;;;13.50;68.30;;;;;;6190168;28;20038;-74
2021/12/28 13:23:04;;;;;;;30.48;15.18;;;13.50;68.20;;;;;;6159370;28;20607;-73
2021/12/28 13:26:05;;;;;;;22.23;11.25;;;13.60;68.10;;;;;;6207128;28;20063;-73
2021/12/28 13:29:06;;;;;;;14.23;6.95;;;13.60;68.00;;;;;;6235581;28;20463;-72
2021/12/28 13:32:17;;;;;;;18.52;9.80;;;13.60;67.70;;;;;;6247189;28;20475;-73
2021/12/28 13:35:20;;;;;;;19.15;7.28;;;13.60;67.70;;;;;;6249723;28;20041;-73
2021/12/28 13:38:24;;;;;;;14.02;6.35;;;13.70;67.80;;;;;;6235292;28;20044;-73
2021/12/28 13:41:25;;;;;;;10.60;5.28;;;13.70;67.70;;;;;;6233286;28;20045;-73
2021/12/28 13:44:26;;;;;;;12.63;6.65;;;13.80;67.60;;;;;;6226390;28;20030;-73
2021/12/28 13:47:27;;;;;;;11.55;6.40;;;13.70;67.30;;;;;;6223904;28;20037;-73
2021/12/28 13:50:28;;;;;;;13.50;5.85;;;13.70;67.40;;;;;;6235465;28;20120;-73
2021/12/28 13:53:46;;;;;;;9.73;5.97;;;13.70;67.40;;;;;;6240816;28;20045;-73
2021/12/28 13:56:51;;;;;;;9.35;5.68;;;13.70;67.40;;;;;;6232011;28;20061;-72
2021/12/28 13:59:55;;;;;;;12.68;6.03;;;13.70;67.40;;;;;;6227605;28;20053;-73
2021/12/28 14:03:04;;;;;;;12.57;5.65;;;13.80;67.40;;;;;;6241030;28;20042;-72
2021/12/28 14:06:07;;;;;;;12.23;6.65;;;13.80;67.60;;;;;;6240896;28;20041;-73
2021/12/28 14:09:14;;;;;;;12.40;6.95;;;13.70;67.40;;;;;;6241036;28;20126;-73
2021/12/28 14:12:15;;;;;;;10.52;6.80;;;13.70;67.50;;;;;;6240998;28;20036;-72
2021/12/28 14:15:16;;;;;;;14.13;7.65;;;13.80;67.60;;;;;;6227135;28;20033;-72
2021/12/28 14:18:34;;;;;;;12.73;6.07;;;13.80;67.50;;;;;;6230176;28;20120;-72
2021/12/28 14:21:35;;;;;;;18.48;9.77;;;13.80;67.50;;;;;;6224033;28;20037;-72
2021/12/28 14:24:37;;;;;;;12.90;7.35;;;13.80;67.60;;;;;;6223595;28;20121;-73
2021/12/28 14:27:39;;;;;;;13.95;6.70;;;13.80;67.70;;;;;;6241981;28;20060;-73
2021/12/28 14:30:39;;;;;;;15.57;5.13;;;13.80;67.60;;;;;;6239610;28;20137;-72
2021/12/28 14:33:58;;;;;;;14.52;7.50;;;13.80;67.50;;;;;;6240949;28;20041;-73
2021/12/28 14:37:17;;;;;;;10.70;6.38;;;13.70;67.40;;;;;;6236826;28;20037;-72
2021/12/28 14:40:29;;;;;;;11.50;5.30;;;13.60;67.50;;;;;;6245209;28;20068;-73
2021/12/28 14:43:30;;;;;;;11.63;6.10;;;13.60;67.70;;;;;;6237058;28;20475;-72
2021/12/28 14:46:32;;;;;;;11.60;5.28;;;13.50;67.60;;;;;;6222040;28;20452;-72
2021/12/28 14:49:34;;;;;;;13.52;5.78;;;13.50;67.90;;;;;;6201878;28;20034;-72
2021/12/28 14:52:37;;;;;;;16.02;6.22;;;13.40;67.90;;;;;;6208040;28;20045;-72
2021/12/28 14:55:40;;;;;;;12.05;5.57;;;13.40;69.00;;;;;;6246853;28;20038;-73
2021/12/28 14:58:41;;;;;;;15.90;9.13;;;13.30;69.00;;;;;;6238147;28;20367;-73
2021/12/28 15:01:42;;;;;;;21.45;9.38;;;13.20;68.20;;;;;;6217318;28;20048;-72
2021/12/28 15:05:01;;;;;;;14.07;7.45;;;13.20;68.40;;;;;;6235788;28;20080;-72
2021/12/28 15:08:10;;;;;;;14.52;7.47;;;13.20;68.70;;;;;;6232591;28;20113;-73
2021/12/28 15:11:10;;;;;;;;;;;13.10;69.00;;;;;;6229672;28;20494;-72
2021/12/28 15:14:11;;;;;;;14.07;7.03;;;13.10;69.10;;;;;;6232828;28;19921;-72
2021/12/28 15:17:14;;;;;;;19.08;9.32;;;13.10;69.10;;;;;;6218893;28;20038;-73
2021/12/28 15:20:16;;;;;;;12.43;6.10;;;13.10;69.20;;;;;;6245630;28;20473;-73
2021/12/28 15:23:17;;;;;;;7.65;3.63;;;13.10;69.10;;;;;;6236380;28;20111;-73
2021/12/28 15:26:18;;;;;;;14.60;5.45;;;13.20;69.10;;;;;;6242602;28;20038;-72
2021/12/28 15:29:21;;;;;;;13.38;6.43;;;13.20;69.10;;;;;;6231889;28;20125;-72
2021/12/28 15:32:22;;;;;;;14.27;6.22;;;13.20;69.00;;;;;;6235780;28;20499;-72
2021/12/28 15:35:29;;;;;;;10.23;5.28;;;13.20;69.00;;;;;;6209179;28;20065;-73
2021/12/28 15:38:30;;;;;;;13.93;6.13;;;13.30;69.00;;;;;;6209142;28;20452;-72
2021/12/28 15:41:32;;;;;;;12.05;7.03;;;13.30;69.00;;;;;;6200939;28;20042;-72
2021/12/28 15:44:33;;;;;;;19.73;10.48;;;13.30;69.00;;;;;;6252871;28;20084;-73
2021/12/28 15:47:34;;;;;;;17.48;9.38;;;13.30;68.90;;;;;;6240455;28;20045;-72
2021/12/28 15:50:35;;;;;;;31.45;15.60;;;13.40;69.00;;;;;;6243658;28;20057;-72